Time;durP1;ratioP1;P1;durP2;ratioP2;P2;SDS_P1;SDS_P2;PMS_P1;PMS_P2;Temp;Humidity;BMP_temperature;BMP_pressure;BME280_temperature;BME280_humidity;BME280_pressure;Samples;Min_cycle;Max_cycle;Signal;HPM_P1;HPM_P2
2022/07/07 00:01:40;;;;;;;4.70;4.20;;;;;;;25.05;48.40;99442.88;5091541;28;20020;-44
2022/07/07 00:04:08;;;;;;;4.55;4.15;;;;;;;25.22;47.51;99444.94;5091239;28;20031;-45
2022/07/07 00:06:35;;;;;;;5.25;4.05;;;;;;;25.10;47.72;99434.59;5090999;28;20504;-43
2022/07/07 00:09:01;;;;;;;6.35;4.03;;;;;;;25.78;45.92;99440.88;5090980;28;20104;-45
2022/07/07 00:11:27;;;;;;;4.20;3.60;;;;;;;24.97;47.56;99434.31;5091236;28;20024;-45
2022/07/07 00:13:53;;;;;;;4.30;3.97;;;;;;;24.84;47.92;99429.72;5091043;28;20024;-46
2022/07/07 00:16:19;;;;;;;4.20;3.80;;;;;;;24.97;47.93;99426.16;5091123;28;20047;-44
2022/07/07 00:18:45;;;;;;;4.38;3.80;;;;;;;25.15;47.40;99426.28;5090923;28;20047;-45
2022/07/07 00:21:10;;;;;;;4.15;3.85;;;;;;;25.69;45.54;99434.56;5091196;28;20212;-45
2022/07/07 00:23:36;;;;;;;3.90;3.60;;;;;;;25.15;46.77;99429.00;5090687;28;20031;-43
2022/07/07 00:26:02;;;;;;;5.07;3.80;;;;;;;24.96;46.89;99426.47;5090875;28;20028;-44
2022/07/07 00:28:28;;;;;;;4.10;3.75;;;;;;;24.92;46.79;99422.72;5090508;28;20035;-44
2022/07/07 00:30:53;;;;;;;4.32;3.60;;;;;;;25.22;45.91;99426.66;5091144;28;20051;-47
2022/07/07 00:33:19;;;;;;;4.18;3.60;;;;;;;25.46;45.56;99423.69;5090694;28;20024;-44
2022/07/07 00:35:44;;;;;;;4.30;3.90;;;;;;;25.18;46.09;99426.47;5090590;28;20024;-47
2022/07/07 00:38:10;;;;;;;4.70;4.25;;;;;;;24.72;47.46;99438.41;5090872;28;20016;-44
2022/07/07 00:40:36;;;;;;;4.13;3.72;;;;;;;24.81;46.86;99434.94;5090283;28;20111;-44
2022/07/07 00:43:02;;;;;;;4.18;3.67;;;;;;;25.01;46.46;99437.22;5090746;28;20035;-43
2022/07/07 00:45:27;;;;;;;4.22;3.83;;;;;;;25.07;46.12;99432.47;5090271;28;20313;-43
2022/07/07 00:47:53;;;;;;;5.97;4.05;;;;;;;25.50;45.07;99429.31;5090965;28;20047;-42
2022/07/07 00:50:19;;;;;;;4.18;3.85;;;;;;;24.99;46.22;99428.56;5090131;28;20052;-44
2022/07/07 00:52:45;;;;;;;4.13;3.70;;;;;;;24.98;46.70;99416.88;5090795;28;20028;-43
2022/07/07 00:55:11;;;;;;;4.10;3.70;;;;;;;25.15;46.09;99423.56;5090256;28;20020;-45
2022/07/07 00:57:37;;;;;;;4.25;3.85;;;;;;;25.18;46.18;99426.47;5090581;28;20496;-43
2022/07/07 01:00:12;;;;;;;4.57;3.88;;;;;;;25.33;45.45;99419.09;5089393;28;20051;-42
2022/07/07 01:02:37;;;;;;;4.32;3.70;;;;;;;25.11;45.82;99417.13;5090593;28;20047;-44
2022/07/07 01:05:05;;;;;;;4.43;4.03;;;;;;;24.83;46.68;99422.66;5090004;28;20595;-43
2022/07/07 01:07:31;;;;;;;5.15;4.20;;;;;;;24.75;46.88;99424.19;5090264;28;20028;-43
2022/07/07 01:09:58;;;;;;;4.65;3.90;;;;;;;24.80;46.78;99422.47;5090520;28;20035;-43
2022/07/07 01:12:24;;;;;;;4.95;3.80;;;;;;;24.85;46.23;99417.72;5090240;28;20020;-46
2022/07/07 01:14:49;;;;;;;5.40;4.00;;;;;;;25.14;45.73;99422.75;5090209;28;20367;-43
2022/07/07 01:17:15;;;;;;;4.18;3.78;;;;;;;24.75;46.70;99424.19;5090394;28;20039;-43
2022/07/07 01:19:40;;;;;;;4.28;3.92;;;;;;;24.74;46.96;99419.84;5090366;28;20076;-43
2022/07/07 01:22:17;;;;;;;4.13;3.58;;;;;;;24.74;46.90;99419.06;5090436;28;20078;-42
2022/07/07 01:24:43;;;;;;;4.90;4.00;;;;;;;24.97;46.39;99423.41;5090039;28;20055;-43
2022/07/07 01:27:14;;;;;;;4.18;3.80;;;;;;;24.87;46.58;99420.94;5090282;28;20028;-43
2022/07/07 01:29:41;;;;;;;4.40;4.00;;;;;;;24.87;46.61;99422.88;5090131;28;20024;-44
2022/07/07 01:32:08;;;;;;;4.97;3.88;;;;;;;24.61;47.30;99425.31;5089787;28;20448;-43
2022/07/07 01:34:38;;;;;;;5.00;3.95;;;;;;;24.61;47.21;99428.84;5089799;28;20085;-43
2022/07/07 01:37:07;;;;;;;5.90;3.55;;;;;;;24.77;47.09;99421.19;5090012;28;20081;-43
2022/07/07 01:39:33;;;;;;;4.47;4.07;;;;;;;24.87;47.00;99431.81;5090044;28;20047;-44
2022/07/07 01:41:58;;;;;;;4.32;3.58;;;;;;;25.01;46.35;99426.34;5089969;28;20089;-44
2022/07/07 01:44:24;;;;;;;6.00;3.95;;;;;;;24.54;47.71;99414.84;5089866;28;20024;-44
2022/07/07 01:46:50;;;;;;;4.43;3.60;;;;;;;24.58;47.69;99415.88;5090366;28;20020;-43
2022/07/07 01:49:16;;;;;;;4.07;3.63;;;;;;;24.69;47.46;99422.69;5054663;28;20079;-43
2022/07/07 01:51:42;;;;;;;5.28;3.88;;;;;;;24.89;46.87;99416.00;5090284;28;20105;-43
2022/07/07 01:54:08;;;;;;;3.92;3.53;;;;;;;25.08;46.51;99421.28;5089606;28;20556;-46
2022/07/07 01:56:34;;;;;;;6.50;3.80;;;;;;;24.89;47.16;99421.44;5089611;28;20031;-45
2022/07/07 01:58:59;;;;;;;5.32;3.65;;;;;;;24.60;47.59;99421.81;5089669;28;20019;-42
2022/07/07 02:01:25;;;;;;;4.22;3.78;;;;;;;24.67;47.39;99426.81;5089984;28;20051;-43
2022/07/07 02:03:50;;;;;;;4.60;3.67;;;;;;;24.58;47.84;99413.94;5089642;28;20506;-43
2022/07/07 02:06:15;;;;;;;5.47;4.05;;;;;;;24.69;47.71;99416.44;5090107;28;20479;-43
2022/07/07 02:08:41;;;;;;;4.25;3.83;;;;;;;24.62;47.47;99422.31;5089912;28;20028;-43
2022/07/07 02:11:12;;;;;;;7.03;4.07;;;;;;;24.34;48.44;99422.28;5091721;28;20020;-42
2022/07/07 02:13:39;;;;;;;5.90;3.88;;;;;;;24.35;48.61;99423.09;5093024;28;20020;-43
2022/07/07 02:16:05;;;;;;;4.75;3.72;;;;;;;24.43;48.63;99429.72;5092973;28;20085;-43
2022/07/07 02:18:34;;;;;;;6.57;3.97;;;;;;;24.42;48.75;99430.84;5093391;28;20490;-45
2022/07/07 02:21:00;;;;;;;;;;;;;;;24.40;48.45;99431.16;5093706;28;20016;-43
2022/07/07 02:23:25;;;;;;;5.32;4.05;;;;;;;24.43;48.61;99430.56;5092871;28;20299;-42
2022/07/07 02:25:51;;;;;;;4.45;3.70;;;;;;;24.30;49.08;99428.66;5092879;28;20073;-44
2022/07/07 02:28:17;;;;;;;5.07;3.45;;;;;;;24.35;48.85;99428.53;5093295;28;20024;-42
2022/07/07 02:30:42;;;;;;;7.10;4.22;;;;;;;24.31;49.16;99433.78;5093065;28;20471;-46
2022/07/07 02:33:08;;;;;;;4.20;3.80;;;;;;;24.46;48.86;99440.81;5093279;28;20031;-43
2022/07/07 02:35:34;;;;;;;4.68;3.80;;;;;;;24.18;49.31;99424.53;5093085;28;20055;-44
2022/07/07 02:38:00;;;;;;;4.20;3.80;;;;;;;24.25;49.59;99439.63;5091458;28;20044;-45
2022/07/07 02:40:25;;;;;;;5.68;3.97;;;;;;;24.29;49.77;99441.41;5092990;28;20028;-43
2022/07/07 02:42:51;;;;;;;4.82;3.85;;;;;;;24.32;49.63;99446.25;5092852;28;20132;-43
2022/07/07 02:45:16;;;;;;;4.30;3.90;;;;;;;24.30;49.76;99447.69;5092634;28;20028;-43
2022/07/07 02:47:42;;;;;;;4.32;3.83;;;;;;;24.11;49.92;99448.56;5092552;28;20499;-43
2022/07/07 02:50:07;;;;;;;6.32;4.72;;;;;;;24.26;49.72;99447.47;5092770;28;20066;-43
2022/07/07 02:52:33;;;;;;;5.80;4.40;;;;;;;24.14;50.08;99442.53;5092829;28;20024;-42
2022/07/07 02:54:58;;;;;;;5.45;4.28;;;;;;;24.19;50.25;99445.13;5092307;28;20091;-43
2022/07/07 02:57:24;;;;;;;11.07;8.93;;;;;;;24.34;49.84;99448.69;5092103;28;20022;-43
2022/07/07 02:59:49;;;;;;;6.50;4.53;;;;;;;24.42;49.71;99442.53;5092273;28;20020;-43
2022/07/07 03:02:14;;;;;;;5.65;4.90;;;;;;;24.68;49.00;99442.06;5092453;28;20081;-43
2022/07/07 03:04:40;;;;;;;23.25;18.50;;;;;;;24.32;49.91;99429.16;5090063;28;20119;-43
2022/07/07 03:07:05;;;;;;;6.95;6.05;;;;;;;24.29;50.07;99446.84;5072117;28;20071;-43
2022/07/07 03:09:31;;;;;;;6.40;3.90;;;;;;;24.30;50.07;99448.47;5072209;28;20140;-41
2022/07/07 03:11:56;;;;;;;4.95;4.30;;;;;;;24.38;49.79;99445.03;5072503;28;20066;-43
2022/07/07 03:14:22;;;;;;;7.30;4.20;;;;;;;24.25;49.91;99448.56;5073383;28;20345;-44
2022/07/07 03:16:47;;;;;;;5.35;4.00;;;;;;;24.34;49.68;99456.84;5081952;28;20012;-43
2022/07/07 03:19:12;;;;;;;7.82;4.40;;;;;;;24.17;50.43;99444.63;5082640;28;20161;-42
2022/07/07 03:21:38;;;;;;;6.13;4.10;;;;;;;24.09;50.31;99442.63;5080861;28;20097;-42
2022/07/07 03:24:04;;;;;;;4.70;4.20;;;;;;;24.43;49.69;99451.47;5081844;28;20106;-43
2022/07/07 03:26:30;;;;;;;4.70;4.20;;;;;;;24.36;49.73;99433.66;5082147;28;20513;-43
2022/07/07 03:28:55;;;;;;;5.25;4.47;;;;;;;24.29;49.77;99446.84;5080476;28;20021;-44
2022/07/07 03:31:21;;;;;;;6.18;4.30;;;;;;;24.40;49.32;99442.03;5081794;28;20027;-41
2022/07/07 03:33:46;;;;;;;6.05;4.30;;;;;;;24.33;49.33;99450.59;5081058;28;20042;-42
2022/07/07 03:36:12;;;;;;;8.35;4.20;;;;;;;24.32;49.50;99448.19;5080762;28;20012;-43
2022/07/07 03:38:38;;;;;;;9.13;4.20;;;;;;;24.62;48.83;99443.25;5076869;28;20448;-44
2022/07/07 03:41:03;;;;;;;4.95;4.20;;;;;;;24.80;47.80;99438.78;5071239;28;20082;-42
2022/07/07 03:43:29;;;;;;;5.47;4.35;;;;;;;25.18;46.79;99448.25;5071357;28;20020;-44
2022/07/07 03:45:54;;;;;;;4.10;3.65;;;;;;;25.09;47.10;99439.25;5071452;28;20112;-43
2022/07/07 03:48:19;;;;;;;6.43;3.95;;;;;;;25.31;46.65;99454.00;5071364;28;20036;-45
2022/07/07 03:50:45;;;;;;;6.15;4.80;;;;;;;25.50;46.49;99448.38;5070925;28;20036;-43
2022/07/07 03:53:10;;;;;;;6.35;4.38;;;;;;;25.96;45.25;99447.22;5071296;28;20112;-43
2022/07/07 03:55:36;;;;;;;5.50;4.13;;;;;;;26.31;44.63;99450.09;5071082;28;20115;-43
2022/07/07 03:58:02;;;;;;;4.65;3.60;;;;;;;26.35;44.12;99451.09;5071197;28;20051;-43
2022/07/07 04:00:28;;;;;;;4.45;4.00;;;;;;;25.99;44.57;99407.63;5070969;28;20117;-44
2022/07/07 04:02:53;;;;;;;6.68;4.68;;;;;;;26.37;44.29;99448.03;5071090;28;20043;-44
2022/07/07 04:05:18;;;;;;;5.38;3.92;;;;;;;26.83;43.20;99450.28;5070800;28;20016;-44
2022/07/07 04:07:47;;;;;;;10.65;4.05;;;;;;;26.76;43.25;99443.69;5071047;28;20067;-43
2022/07/07 04:10:12;;;;;;;5.75;3.90;;;;;;;27.58;41.70;99458.31;5070698;28;20035;-45
2022/07/07 04:12:38;;;;;;;7.85;3.78;;;;;;;27.28;42.34;99460.94;5070900;28;20028;-42
2022/07/07 04:15:04;;;;;;;5.30;3.83;;;;;;;27.63;41.42;99458.16;5069725;28;20032;-44
2022/07/07 04:17:29;;;;;;;6.00;4.03;;;;;;;27.91;41.12;99457.78;5069612;28;20050;-45
2022/07/07 04:19:55;;;;;;;4.60;3.72;;;;;;;28.24;40.20;99460.72;5069425;28;20446;-44
2022/07/07 04:22:20;;;;;;;6.05;3.88;;;;;;;28.46;39.99;99469.78;5070075;28;20024;-43
2022/07/07 04:24:46;;;;;;;4.43;4.03;;;;;;;28.51;39.72;99466.88;5069581;28;20225;-42
2022/07/07 04:27:11;;;;;;;9.50;3.88;;;;;;;28.21;40.28;99471.53;5070330;28;20021;-45
2022/07/07 04:29:37;;;;;;;9.60;4.32;;;;;;;28.42;39.40;99464.19;5070050;28;20035;-44
2022/07/07 04:32:04;;;;;;;21.42;18.38;;;;;;;29.21;38.32;99477.44;5069986;28;20021;-45
2022/07/07 04:34:29;;;;;;;7.68;4.25;;;;;;;29.14;38.13;99469.75;5067604;28;20024;-43
2022/07/07 04:36:55;;;;;;;7.40;3.67;;;;;;;29.05;38.69;99477.19;5069306;28;20039;-41
2022/07/07 04:39:21;;;;;;;4.22;3.83;;;;;;;29.33;38.03;99474.75;5070151;28;20024;-42
2022/07/07 04:41:46;;;;;;;24.95;19.23;;;;;;;29.46;38.04;99478.34;5069808;28;20033;-42
2022/07/07 04:44:12;;;;;;;4.20;3.80;;;;;;;29.56;37.59;99472.44;5068341;28;20486;-43
2022/07/07 04:46:38;;;;;;;5.35;3.60;;;;;;;29.58;38.06;99472.91;5070553;28;20056;-44
2022/07/07 04:49:03;;;;;;;4.82;3.60;;;;;;;29.61;37.83;99469.50;5071735;28;20071;-41
2022/07/07 04:51:29;;;;;;;5.88;3.92;;;;;;;30.12;36.51;99476.72;5084087;28;20031;-45
2022/07/07 04:53:55;;;;;;;7.97;3.72;;;;;;;30.42;36.31;99465.56;5090518;28;20024;-46
2022/07/07 04:56:21;;;;;;;4.03;3.63;;;;;;;30.39;36.59;99467.06;5091753;28;20034;-36
2022/07/07 04:58:46;;;;;;;7.13;3.70;;;;;;;30.29;36.64;99462.81;5092316;28;20028;-42
2022/07/07 05:01:12;;;;;;;3.60;3.15;;;;;;;30.21;36.35;99464.50;5091553;28;20028;-36
2022/07/07 05:03:38;;;;;;;4.97;3.40;;;;;;;30.30;36.17;99464.38;5091531;28;20407;-36
2022/07/07 05:06:04;;;;;;;5.22;3.60;;;;;;;30.87;35.35;99468.16;5089980;28;20055;-37
2022/07/07 05:08:31;;;;;;;3.80;3.50;;;;;;;30.48;36.13;99464.19;5091441;28;20476;-36
2022/07/07 05:10:56;;;;;;;5.63;3.10;;;;;;;30.84;35.42;99465.28;5092039;28;20483;-36
2022/07/07 05:13:22;;;;;;;4.07;3.20;;;;;;;30.82;35.41;99462.09;5091368;28;20020;-37
2022/07/07 05:15:48;;;;;;;6.85;3.50;;;;;;;30.71;35.60;99462.59;5090952;28;20038;-37
2022/07/07 05:18:15;;;;;;;5.63;3.28;;;;;;;31.10;35.31;99462.97;5073387;28;20032;-44
2022/07/07 05:20:40;;;;;;;4.55;3.20;;;;;;;30.87;35.25;99454.41;5090751;28;20068;-43
2022/07/07 05:23:06;;;;;;;7.80;3.55;;;;;;;30.79;35.60;99466.34;5090427;28;20416;-45
2022/07/07 05:25:31;;;;;;;4.30;3.17;;;;;;;30.63;35.64;99468.19;5090502;28;20443;-42
2022/07/07 05:27:57;;;;;;;7.43;3.30;;;;;;;31.43;34.71;99472.13;5089975;28;20047;-43
2022/07/07 05:30:22;;;;;;;4.75;3.80;;;;;;;32.07;33.75;99473.91;5090455;28;20047;-43
2022/07/07 05:32:47;;;;;;;4.35;3.30;;;;;;;32.05;33.77;99472.66;5090302;28;20026;-43
2022/07/07 05:35:13;;;;;;;4.28;3.38;;;;;;;31.34;34.56;99469.53;5090205;28;20063;-43
2022/07/07 05:37:40;;;;;;;5.68;3.00;;;;;;;31.95;33.99;99485.75;5090007;28;20067;-43
2022/07/07 05:40:07;;;;;;;7.72;3.30;;;;;;;31.66;34.04;99475.97;5089994;28;20442;-43
2022/07/07 05:42:33;;;;;;;5.70;3.22;;;;;;;32.14;33.37;99476.84;5089848;28;20035;-43
2022/07/07 05:44:58;;;;;;;5.57;3.08;;;;;;;32.29;32.81;99477.16;5089294;28;20031;-43
2022/07/07 05:47:23;;;;;;;4.72;3.25;;;;;;;32.52;32.50;99480.88;5094101;28;20024;-43
2022/07/07 05:49:49;;;;;;;5.15;3.30;;;;;;;32.00;33.00;99483.88;5082940;28;20545;-42
2022/07/07 05:52:14;;;;;;;3.70;3.20;;;;;;;32.17;32.77;99480.81;5073837;28;20023;-43
2022/07/07 05:54:40;;;;;;;3.65;2.80;;;;;;;31.75;33.91;99464.78;5073767;28;20021;-44
2022/07/07 05:57:06;;;;;;;7.97;3.25;;;;;;;31.40;34.19;99483.81;5073474;28;20056;-44
2022/07/07 05:59:32;;;;;;;7.75;3.08;;;;;;;31.70;33.85;99485.09;5080191;28;20028;-43
2022/07/07 06:01:57;;;;;;;7.18;3.00;;;;;;;31.47;33.79;99486.78;5091646;28;20028;-45
2022/07/07 06:04:24;;;;;;;6.53;3.20;;;;;;;30.70;34.92;99477.44;5091748;28;20488;-44
2022/07/07 06:06:50;;;;;;;15.90;3.70;;;;;;;30.64;35.09;99480.78;5091538;28;20039;-45
2022/07/07 06:09:16;;;;;;;5.18;3.50;;;;;;;31.45;34.13;99478.88;5091527;28;20028;-44
2022/07/07 06:11:41;;;;;;;11.07;4.72;;;;;;;32.15;33.24;99483.13;5091367;28;20408;-43
2022/07/07 06:14:07;;;;;;;8.27;4.13;;;;;;;32.17;32.92;99485.53;5091292;28;20058;-43
2022/07/07 06:16:41;;;;;;;5.03;3.15;;;;;;;32.67;32.00;99489.50;5091371;28;20467;-43
2022/07/07 06:19:12;;;;;;;3.63;2.63;;;;;;;32.13;32.34;99488.19;5091420;28;20028;-42
2022/07/07 06:21:39;;;;;;;7.07;3.30;;;;;;;32.12;32.17;99490.16;5091884;28;20432;-42
2022/07/07 06:24:05;;;;;;;3.35;2.70;;;;;;;32.09;32.74;99487.31;5093002;28;20146;-45
2022/07/07 06:26:31;;;;;;;5.60;2.70;;;;;;;32.04;32.37;99488.34;5093012;28;20055;-43
2022/07/07 06:28:56;;;;;;;4.07;2.88;;;;;;;32.52;31.71;99507.63;5092900;28;20460;-43
2022/07/07 06:31:22;;;;;;;5.18;2.40;;;;;;;31.32;33.02;99489.13;5093289;28;20024;-43
2022/07/07 06:33:48;;;;;;;10.57;2.90;;;;;;;32.53;31.81;99492.69;5093357;28;20028;-44
2022/07/07 06:36:14;;;;;;;7.07;2.53;;;;;;;32.87;31.55;99487.59;5092927;28;20024;-44
2022/07/07 06:38:39;;;;;;;5.60;2.70;;;;;;;32.42;31.98;99491.63;5093043;28;20016;-44
2022/07/07 06:41:05;;;;;;;5.30;2.53;;;;;;;32.17;32.39;99494.56;5093020;28;20475;-44
2022/07/07 06:43:30;;;;;;;10.50;2.40;;;;;;;32.75;31.42;99487.69;5092306;28;20106;-45
2022/07/07 06:45:56;;;;;;;3.88;2.45;;;;;;;33.31;30.19;99487.38;5093021;28;20036;-44
2022/07/07 06:48:22;;;;;;;4.72;2.30;;;;;;;33.04;30.67;99497.41;5092426;28;20403;-44
2022/07/07 06:50:47;;;;;;;3.40;2.33;;;;;;;33.35;30.65;99488.25;5092222;28;20525;-43
2022/07/07 06:53:13;;;;;;;2.95;2.20;;;;;;;33.06;30.29;99484.88;5092267;28;20020;-44
2022/07/07 06:55:38;;;;;;;3.83;2.40;;;;;;;33.77;29.40;99495.78;5092148;28;20076;-47
2022/07/07 06:58:04;;;;;;;3.15;2.20;;;;;;;34.09;29.01;99481.75;5091263;28;20084;-44
2022/07/07 07:00:30;;;;;;;5.10;2.50;;;;;;;34.42;29.09;99483.91;5091980;28;20363;-42
2022/07/07 07:02:56;;;;;;;5.43;2.38;;;;;;;34.08;29.08;99486.47;5091765;28;20043;-44
2022/07/07 07:05:21;;;;;;;4.47;2.25;;;;;;;34.47;28.11;99491.06;5092106;28;20031;-43
2022/07/07 07:07:47;;;;;;;2.40;2.20;;;;;;;34.93;27.97;99488.22;5092238;28;20024;-43
2022/07/07 07:10:12;;;;;;;4.63;2.55;;;;;;;34.33;28.31;99491.66;5092183;28;20020;-46
2022/07/07 07:12:38;;;;;;;5.68;2.40;;;;;;;33.96;28.94;99483.88;5091851;28;20107;-44
2022/07/07 07:15:05;;;;;;;4.78;2.80;;;;;;;33.62;29.32;99469.06;5091325;28;20036;-44
2022/07/07 07:17:31;;;;;;;2.60;2.40;;;;;;;33.76;29.69;99477.63;5091932;28;20024;-43
2022/07/07 07:19:56;;;;;;;7.13;2.60;;;;;;;32.95;29.99;99481.06;5091839;28;20054;-45
2022/07/07 07:22:22;;;;;;;5.82;2.70;;;;;;;33.31;29.86;99485.41;5091702;28;20110;-44
2022/07/07 07:24:47;;;;;;;10.27;3.13;;;;;;;33.63;29.25;99482.50;5091464;28;20047;-42
2022/07/07 07:27:13;;;;;;;8.23;2.83;;;;;;;33.37;29.70;99480.41;5091701;28;20514;-43
2022/07/07 07:29:38;;;;;;;6.93;2.70;;;;;;;33.94;28.70;99480.69;5091551;28;20156;-43
2022/07/07 07:32:05;;;;;;;2.80;2.60;;;;;;;33.02;30.24;99481.25;5091688;28;20095;-43
2022/07/07 07:34:30;;;;;;;2.95;2.50;;;;;;;33.81;29.00;99488.34;5091371;28;20058;-42
2022/07/07 07:36:55;;;;;;;3.00;2.28;;;;;;;34.59;28.31;99484.53;5091290;28;20124;-47
2022/07/07 07:39:21;;;;;;;4.32;2.55;;;;;;;35.07;27.83;99478.50;5091424;28;20035;-44
2022/07/07 07:41:46;;;;;;;7.10;2.97;;;;;;;35.20;27.25;99483.44;5091264;28;20381;-44
2022/07/07 07:44:12;;;;;;;8.75;2.60;;;;;;;35.43;27.11;99485.28;5091084;28;20031;-43
2022/07/07 07:46:37;;;;;;;4.15;2.33;;;;;;;34.39;27.96;99483.84;5091156;28;20032;-43
2022/07/07 07:49:06;;;;;;;8.77;2.90;;;;;;;34.20;28.10;99474.47;5091489;28;20048;-44
2022/07/07 07:51:34;;;;;;;3.92;2.60;;;;;;;34.35;27.88;99477.44;5091094;28;20023;-44
2022/07/07 07:54:00;;;;;;;3.97;2.33;;;;;;;34.79;27.87;99476.97;5090760;28;20099;-44
2022/07/07 07:56:26;;;;;;;6.32;2.20;;;;;;;34.88;27.33;99471.97;5090636;28;20123;-45
2022/07/07 07:58:52;;;;;;;2.88;2.42;;;;;;;35.26;27.15;99475.63;5090867;28;20152;-44
2022/07/07 08:01:17;;;;;;;3.30;2.70;;;;;;;35.41;27.00;99462.75;5090960;28;20024;-43
2022/07/07 08:03:43;;;;;;;3.50;2.58;;;;;;;35.61;26.67;99461.41;5090968;28;20020;-44
2022/07/07 08:06:08;;;;;;;4.75;2.63;;;;;;;35.57;27.08;99470.84;5090635;28;20552;-43
2022/07/07 08:08:34;;;;;;;3.65;2.35;;;;;;;35.68;26.64;99463.50;5090269;28;20111;-44
2022/07/07 08:10:59;;;;;;;3.00;2.58;;;;;;;35.75;26.51;99476.59;5090932;28;20022;-44
2022/07/07 08:13:24;;;;;;;3.95;2.63;;;;;;;36.09;26.18;99469.00;5090620;28;20020;-43
2022/07/07 08:15:50;;;;;;;3.33;2.83;;;;;;;36.36;25.13;99466.84;5090845;28;20020;-45
2022/07/07 08:18:16;;;;;;;3.03;2.60;;;;;;;36.21;25.69;99467.91;5090817;28;20077;-44
2022/07/07 08:20:41;;;;;;;6.57;2.50;;;;;;;35.18;26.69;99463.69;5090872;28;20104;-45
2022/07/07 08:23:07;;;;;;;4.35;2.80;;;;;;;34.44;27.55;99462.25;5090787;28;20103;-44
2022/07/07 08:25:33;;;;;;;6.45;2.63;;;;;;;34.59;27.35;99468.75;5090881;28;20372;-43
2022/07/07 08:28:00;;;;;;;7.60;2.95;;;;;;;33.74;28.17;99454.31;5090993;28;20115;-43
2022/07/07 08:30:25;;;;;;;4.00;2.50;;;;;;;34.02;28.34;99454.03;5091183;28;20141;-45
2022/07/07 08:32:51;;;;;;;5.82;2.60;;;;;;;33.87;28.10;99452.97;5091098;28;20108;-44
2022/07/07 08:35:16;;;;;;;2.75;2.47;;;;;;;34.10;28.07;99464.03;5090783;28;20024;-42
2022/07/07 08:37:42;;;;;;;5.13;2.63;;;;;;;33.78;28.22;99461.50;5090759;28;20498;-43
2022/07/07 08:40:09;;;;;;;5.07;2.67;;;;;;;34.31;27.66;99463.63;5088751;28;20107;-46
2022/07/07 08:42:34;;;;;;;7.40;2.90;;;;;;;34.26;27.55;99458.41;5090559;28;20020;-45
2022/07/07 08:45:00;;;;;;;3.80;2.90;;;;;;;34.57;27.47;99446.22;5090111;28;20034;-44
2022/07/07 08:47:25;;;;;;;2.97;2.70;;;;;;;34.74;27.19;99449.66;5089149;28;20032;-43
2022/07/07 08:49:51;;;;;;;4.47;2.75;;;;;;;34.04;28.32;99452.50;5090372;28;20316;-47
2022/07/07 08:52:17;;;;;;;5.10;2.70;;;;;;;34.88;27.68;99449.88;5090670;28;20022;-45
2022/07/07 08:54:43;;;;;;;7.70;2.95;;;;;;;34.77;27.07;99448.94;5090262;28;20107;-47
2022/07/07 08:57:09;;;;;;;7.03;2.85;;;;;;;35.65;26.02;99452.34;5090247;28;20112;-43
2022/07/07 08:59:34;;;;;;;4.60;2.60;;;;;;;35.68;26.15;99446.88;5090098;28;20036;-43
2022/07/07 09:02:01;;;;;;;4.40;2.92;;;;;;;35.60;26.06;99446.00;5090024;28;20024;-45
2022/07/07 09:04:27;;;;;;;4.00;2.90;;;;;;;34.95;26.71;99452.69;5090091;28;20110;-43
2022/07/07 09:06:56;;;;;;;4.72;3.00;;;;;;;35.93;26.38;99455.41;5090427;28;20028;-46
2022/07/07 09:09:40;;;;;;;5.78;2.80;;;;;;;34.95;26.90;99455.47;5090751;28;20024;-45
2022/07/07 09:12:07;;;;;;;3.42;2.60;;;;;;;35.59;26.11;99455.44;5090092;28;20024;-43
2022/07/07 09:14:40;;;;;;;5.57;2.92;;;;;;;34.52;27.46;99465.09;5089974;28;20081;-43
2022/07/07 09:17:16;;;;;;;3.17;2.65;;;;;;;34.87;27.08;99444.72;5090241;28;20085;-44
2022/07/07 09:19:43;;;;;;;6.03;2.80;;;;;;;34.33;26.90;99444.72;5090360;28;20126;-44
2022/07/07 09:22:11;;;;;;;3.17;2.88;;;;;;;35.19;25.92;99451.47;5093844;28;20089;-43
2022/07/07 09:24:57;;;;;;;8.40;3.20;;;;;;;35.55;26.68;99440.78;5094408;28;20071;-45
2022/07/07 09:27:22;;;;;;;4.00;3.00;;;;;;;35.28;26.48;99442.88;5093922;28;20278;-45
2022/07/07 09:29:48;;;;;;;8.55;3.47;;;;;;;35.12;26.39;99447.78;5092732;28;20020;-42
2022/07/07 09:32:13;;;;;;;3.30;3.00;;;;;;;35.16;26.57;99448.63;5093877;28;20024;-43
2022/07/07 09:34:39;;;;;;;3.55;2.80;;;;;;;35.22;25.84;99447.94;5093845;28;20035;-44
2022/07/07 09:39:54;;;;;;;3.65;3.00;;;;;;;34.81;27.24;99439.50;5094680;28;20034;-45
2022/07/07 09:42:31;;;;;;;3.40;3.10;;;;;;;35.50;25.95;99430.06;5094067;28;20112;-46
2022/07/07 09:45:00;;;;;;;3.72;3.40;;;;;;;35.61;26.15;99435.72;5093805;28;20104;-42
2022/07/07 09:47:27;;;;;;;13.50;3.30;;;;;;;35.86;25.49;99424.91;5094015;28;20023;-46
2022/07/07 09:50:14;;;;;;;6.28;2.83;;;;;;;35.32;26.57;99427.13;5093774;28;20504;-41
2022/07/07 09:52:42;;;;;;;3.40;2.90;;;;;;;35.70;26.28;99418.81;5093586;28;20479;-43
2022/07/07 09:55:10;;;;;;;12.55;3.80;;;;;;;34.89;27.07;99412.75;5093469;28;20105;-46
2022/07/07 09:57:36;;;;;;;8.10;3.03;;;;;;;36.00;25.92;99413.13;5093818;28;20063;-42
2022/07/07 10:00:03;;;;;;;4.80;2.70;;;;;;;35.44;25.89;99407.47;5093555;28;20385;-45
2022/07/07 10:02:29;;;;;;;3.00;2.80;;;;;;;35.71;25.41;99404.59;5092859;28;20044;-43
2022/07/07 10:05:00;;;;;;;4.88;3.00;;;;;;;35.39;25.97;99413.34;5093218;28;20024;-43
2022/07/07 10:07:31;;;;;;;5.85;3.03;;;;;;;35.54;25.32;99394.94;5093687;28;20523;-43
2022/07/07 10:10:00;;;;;;;3.70;2.58;;;;;;;35.49;25.90;99405.53;5093264;28;20024;-45
2022/07/07 10:12:27;;;;;;;3.05;2.75;;;;;;;35.99;25.74;99400.50;5093342;28;20085;-43
2022/07/07 10:15:05;;;;;;;4.45;2.72;;;;;;;36.35;25.47;99409.88;5092983;28;20452;-44
2022/07/07 10:17:31;;;;;;;3.50;2.90;;;;;;;36.63;24.70;99404.88;5093310;28;20046;-43
2022/07/07 10:19:57;;;;;;;5.00;3.00;;;;;;;36.65;25.44;99399.72;5093034;28;20482;-43
2022/07/07 10:22:27;;;;;;;5.82;2.80;;;;;;;36.27;25.58;99399.94;5093239;28;20107;-45
2022/07/07 10:24:57;;;;;;;4.20;2.90;;;;;;;35.82;25.49;99402.72;5092383;28;20031;-44
2022/07/07 10:27:25;;;;;;;7.20;3.10;;;;;;;36.26;25.06;99403.09;5092846;28;20032;-43
2022/07/07 10:29:59;;;;;;;4.80;2.75;;;;;;;35.48;25.52;99392.91;5093289;28;20050;-49
2022/07/07 10:32:37;;;;;;;4.97;3.10;;;;;;;35.35;25.77;99393.16;5093021;28;20028;-43
2022/07/07 10:35:10;;;;;;;5.73;2.90;;;;;;;36.11;24.33;99391.09;5093068;28;20051;-42
2022/07/07 10:37:43;;;;;;;5.45;3.38;;;;;;;36.65;24.50;99386.69;5092784;28;20270;-46
2022/07/07 10:40:29;;;;;;;3.65;2.63;;;;;;;36.76;24.52;99375.66;5093120;28;20040;-46
2022/07/07 10:43:16;;;;;;;4.53;2.88;;;;;;;36.92;24.11;99378.13;5093072;28;20024;-44
2022/07/07 10:45:46;;;;;;;4.13;2.80;;;;;;;36.25;24.56;99382.09;5092718;28;20051;-43
2022/07/07 10:48:46;;;;;;;5.07;2.92;;;;;;;37.37;23.79;99384.97;5092639;28;20088;-44
2022/07/07 10:51:17;;;;;;;;;;;;;;;35.14;25.18;99387.38;5092935;28;20094;-43
2022/07/07 10:54:01;;;;;;;2.97;2.67;;;;;;;36.24;24.53;99377.75;5092599;28;20009;-46
2022/07/07 10:56:27;;;;;;;3.08;2.78;;;;;;;36.74;24.40;99375.28;5092596;28;20027;-43
2022/07/07 10:59:00;;;;;;;3.70;2.90;;;;;;;37.25;23.52;99365.16;5092333;28;20047;-46
2022/07/07 11:01:31;;;;;;;5.95;2.72;;;;;;;36.19;24.90;99378.91;5092131;28;20024;-46
2022/07/07 11:03:57;;;;;;;7.25;2.80;;;;;;;36.75;23.86;99371.31;5092259;28;20028;-44
2022/07/07 11:06:23;;;;;;;3.78;2.50;;;;;;;36.86;24.30;99363.84;5092539;28;20032;-45
2022/07/07 11:09:00;;;;;;;3.10;2.55;;;;;;;37.06;24.12;99355.97;5092146;28;20031;-44
2022/07/07 11:11:26;;;;;;;4.22;2.92;;;;;;;36.62;24.63;99372.81;5092105;28;20403;-44
2022/07/07 11:14:09;;;;;;;4.90;2.95;;;;;;;36.33;24.73;99367.91;5091969;28;20468;-44
2022/07/07 11:16:36;;;;;;;3.78;2.58;;;;;;;36.37;24.56;99365.19;5092422;28;20044;-46
2022/07/07 11:19:04;;;;;;;4.10;2.80;;;;;;;36.84;24.39;99362.63;5091822;28;20027;-43
2022/07/07 11:21:44;;;;;;;2.80;2.60;;;;;;;36.73;24.16;99368.16;5092240;28;20024;-45
2022/07/07 11:24:21;;;;;;;4.70;2.75;;;;;;;36.21;25.12;99371.00;5091821;28;20084;-45
2022/07/07 11:27:03;;;;;;;2.70;2.50;;;;;;;35.53;25.21;99359.34;5092171;28;20024;-46
2022/07/07 11:29:29;;;;;;;4.60;2.85;;;;;;;35.94;24.89;99362.88;5090230;28;20028;-44
2022/07/07 11:32:09;;;;;;;5.13;2.80;;;;;;;36.28;24.75;99348.88;5091508;28;20028;-46
2022/07/07 11:34:48;;;;;;;8.10;5.00;;;;;;;36.31;24.21;99339.81;5091852;28;20028;-44
2022/07/07 11:37:27;;;;;;;6.55;3.20;;;;;;;35.72;25.91;99352.81;5092103;28;20031;-43